Time;durP1;ratioP1;P1;durP2;ratioP2;P2;SDS_P1;SDS_P2;PMS_P1;PMS_P2;Temp;Humidity;BMP_temperature;BMP_pressure;BME280_temperature;BME280_humidity;BME280_pressure;Samples;Min_cycle;Max_cycle;Signal;HPM_P1;HPM_P2
2022/02/23 00:01:04;;;;;;;38.05;21.77;;;29.90;64.70;;;;;;5084718;28;20042;-40
2022/02/23 00:03:31;;;;;;;39.65;21.70;;;29.80;64.60;;;;;;5084617;28;20055;-42
2022/02/23 00:05:57;;;;;;;28.35;21.13;;;29.80;64.50;;;;;;5084484;28;20025;-44
2022/02/23 00:08:24;;;;;;;34.88;21.08;;;29.80;64.50;;;;;;5084242;28;20040;-40
2022/02/23 00:10:50;;;;;;;34.05;21.25;;;29.80;64.50;;;;;;5084598;28;20070;-41
2022/02/23 00:13:17;;;;;;;38.97;20.33;;;29.80;64.40;;;;;;5084618;28;20035;-40
2022/02/23 00:15:44;;;;;;;33.50;19.80;;;29.80;64.50;;;;;;5084331;28;20032;-40
2022/02/23 00:18:12;;;;;;;34.08;19.45;;;29.80;64.40;;;;;;5084266;28;20028;-40
2022/02/23 00:20:39;;;;;;;76.28;22.42;;;29.70;64.30;;;;;;5083881;28;20040;-41
2022/02/23 00:23:06;;;;;;;119.68;22.95;;;29.70;64.30;;;;;;5083997;28;20078;-42
2022/02/23 00:25:33;;;;;;;41.90;18.90;;;29.70;64.30;;;;;;5084171;28;20033;-41
2022/02/23 00:28:01;;;;;;;43.72;19.95;;;29.70;64.30;;;;;;5084080;28;20023;-41
2022/02/23 00:30:27;;;;;;;38.42;18.27;;;29.70;64.40;;;;;;5083947;28;20028;-44
2022/02/23 00:32:55;;;;;;;31.10;17.80;;;29.70;64.30;;;;;;5084146;28;20051;-42
2022/02/23 00:35:23;;;;;;;40.45;18.35;;;29.70;64.30;;;;;;5084081;28;20020;-42
2022/02/23 00:37:49;;;;;;;26.83;17.63;;;29.70;64.20;;;;;;5083795;28;20032;-43
2022/02/23 00:40:16;;;;;;;32.47;17.08;;;29.70;64.10;;;;;;5083715;28;20036;-42
2022/02/23 00:42:44;;;;;;;39.78;17.42;;;29.70;64.20;;;;;;5082623;28;20012;-43
2022/02/23 00:45:11;;;;;;;22.20;16.55;;;29.70;64.20;;;;;;5082821;28;20056;-41
2022/02/23 00:47:40;;;;;;;30.10;16.40;;;29.60;64.20;;;;;;5083929;28;20032;-42
2022/02/23 00:50:07;;;;;;;27.52;16.73;;;29.60;64.10;;;;;;5083931;28;20027;-45
2022/02/23 00:52:33;;;;;;;34.40;16.80;;;29.60;64.10;;;;;;5084113;28;20066;-42
2022/02/23 00:55:00;;;;;;;31.90;16.90;;;29.60;64.10;;;;;;5083976;28;20036;-41
2022/02/23 00:57:26;;;;;;;34.95;16.98;;;29.60;64.10;;;;;;5083646;28;20216;-45
2022/02/23 00:59:53;;;;;;;25.65;16.55;;;29.60;64.10;;;;;;5082684;28;20315;-42
2022/02/23 01:02:20;;;;;;;25.77;16.73;;;29.60;64.00;;;;;;5083403;28;20035;-42
2022/02/23 01:04:47;;;;;;;21.42;16.77;;;29.50;64.10;;;;;;5083692;28;20057;-39
2022/02/23 01:07:14;;;;;;;31.73;17.17;;;29.50;64.10;;;;;;5083638;28;20095;-40
2022/02/23 01:09:42;;;;;;;27.88;16.55;;;29.50;64.00;;;;;;5083779;28;20078;-44
2022/02/23 01:12:09;;;;;;;26.40;16.42;;;29.50;64.10;;;;;;5083737;28;20017;-43
2022/02/23 01:14:37;;;;;;;31.23;16.45;;;29.50;64.10;;;;;;5083516;28;20036;-44
2022/02/23 01:17:04;;;;;;;32.80;16.88;;;29.50;64.10;;;;;;5082671;28;20024;-45
2022/02/23 01:19:31;;;;;;;34.53;17.10;;;29.50;64.10;;;;;;5083423;28;20016;-45
2022/02/23 01:22:00;;;;;;;37.75;16.67;;;29.50;64.00;;;;;;5083677;28;20104;-42
2022/02/23 01:24:26;;;;;;;34.60;16.73;;;29.50;64.20;;;;;;5082359;28;20251;-43
2022/02/23 01:26:53;;;;;;;28.98;16.50;;;29.50;64.20;;;;;;5083579;28;20335;-44
2022/02/23 01:29:19;;;;;;;49.83;17.05;;;29.50;64.10;;;;;;5086432;28;20021;-46
2022/02/23 01:31:46;;;;;;;56.80;18.25;;;29.50;64.10;;;;;;5087015;28;20221;-42
2022/02/23 01:34:13;;;;;;;50.20;17.88;;;29.40;64.10;;;;;;5086928;28;20017;-41
2022/02/23 01:36:39;;;;;;;31.63;16.23;;;29.40;64.10;;;;;;5086781;28;20032;-42
2022/02/23 01:39:06;;;;;;;39.20;17.50;;;29.40;64.10;;;;;;5086772;28;20024;-43
2022/02/23 01:41:32;;;;;;;37.25;16.33;;;29.40;64.10;;;;;;5087215;28;20046;-42
2022/02/23 01:44:00;;;;;;;36.88;17.25;;;29.40;64.00;;;;;;5086546;28;20031;-48
2022/02/23 01:46:27;;;;;;;34.03;17.52;;;29.40;64.10;;;;;;5087198;28;20059;-45
2022/02/23 01:48:54;;;;;;;28.08;17.05;;;29.30;64.00;;;;;;5086829;28;20024;-43
2022/02/23 01:51:22;;;;;;;24.30;15.88;;;29.30;64.00;;;;;;5085867;28;20100;-43
2022/02/23 01:53:50;;;;;;;24.95;15.35;;;29.30;64.00;;;;;;5085702;28;20033;-42
2022/02/23 01:56:16;;;;;;;30.40;16.17;;;29.40;63.90;;;;;;5088789;28;20032;-50
2022/02/23 01:58:44;;;;;;;23.08;15.75;;;29.30;63.80;;;;;;5093780;28;20028;-40
2022/02/23 02:01:11;;;;;;;25.95;16.67;;;29.30;63.70;;;;;;5106819;28;20038;-43
2022/02/23 02:03:38;;;;;;;23.10;16.40;;;29.30;63.60;;;;;;5106417;28;20016;-40
2022/02/23 02:06:09;;;;;;;24.10;16.33;;;29.30;63.60;;;;;;5106707;28;20095;-41
2022/02/23 02:08:35;;;;;;;26.88;16.50;;;29.30;63.60;;;;;;5105309;28;20032;-40
2022/02/23 02:11:05;;;;;;;22.38;15.10;;;29.30;63.60;;;;;;5106607;28;20028;-45
2022/02/23 02:13:32;;;;;;;22.58;15.63;;;29.30;63.50;;;;;;5105575;28;20027;-45
2022/02/23 02:15:59;;;;;;;23.27;15.10;;;29.20;63.30;;;;;;5105212;28;20028;-42
2022/02/23 02:18:25;;;;;;;22.27;16.10;;;29.20;63.30;;;;;;5106405;28;20357;-45
2022/02/23 02:20:52;;;;;;;21.60;16.00;;;29.20;63.20;;;;;;5105718;28;20047;-40
2022/02/23 02:23:20;;;;;;;23.60;15.63;;;29.20;63.20;;;;;;5097851;28;20061;-39
2022/02/23 02:25:47;;;;;;;19.83;15.38;;;29.20;63.10;;;;;;5067914;28;20099;-39
2022/02/23 02:28:16;;;;;;;21.73;15.63;;;29.20;63.20;;;;;;5084165;28;20265;-39
2022/02/23 02:30:43;;;;;;;42.55;16.95;;;29.20;63.10;;;;;;5085984;28;20032;-41
2022/02/23 02:33:10;;;;;;;25.50;16.33;;;29.20;63.10;;;;;;5084550;28;20031;-41
2022/02/23 02:35:38;;;;;;;21.75;15.85;;;29.20;63.10;;;;;;5085798;28;20095;-40
2022/02/23 02:38:07;;;;;;;21.25;14.90;;;29.20;63.20;;;;;;5085703;28;20028;-44
2022/02/23 02:40:34;;;;;;;22.52;15.60;;;29.20;63.10;;;;;;5085694;28;20032;-39
2022/02/23 02:43:07;;;;;;;18.02;15.52;;;29.10;63.00;;;;;;5083930;28;20020;-39
2022/02/23 02:45:33;;;;;;;18.48;14.98;;;29.10;63.00;;;;;;5085753;28;20062;-43
2022/02/23 02:48:01;;;;;;;18.58;15.60;;;29.10;62.90;;;;;;5087673;28;20075;-37
2022/02/23 02:50:28;;;;;;;25.77;16.02;;;29.10;62.90;;;;;;5085680;28;20369;-38
2022/02/23 02:52:54;;;;;;;49.72;16.90;;;29.10;62.90;;;;;;5094638;28;20024;-41
2022/02/23 02:55:21;;;;;;;19.17;14.77;;;29.10;63.00;;;;;;5105745;28;20016;-47
2022/02/23 02:57:48;;;;;;;20.73;15.85;;;29.10;62.90;;;;;;5087685;28;20042;-40
2022/02/23 03:00:15;;;;;;;18.40;15.80;;;29.00;62.80;;;;;;5085133;28;20047;-39
2022/02/23 03:02:42;;;;;;;19.73;15.70;;;29.10;62.90;;;;;;5085108;28;20308;-41
2022/02/23 03:05:08;;;;;;;22.17;15.40;;;29.00;62.90;;;;;;5084997;28;20074;-42
2022/02/23 03:07:35;;;;;;;20.70;15.30;;;29.10;63.00;;;;;;5084963;28;20192;-45
2022/02/23 03:10:02;;;;;;;21.08;16.10;;;29.00;62.80;;;;;;5084804;28;20025;-46
2022/02/23 03:12:28;;;;;;;26.42;16.25;;;29.00;62.80;;;;;;5084373;28;20047;-41
2022/02/23 03:14:55;;;;;;;20.83;15.75;;;29.00;62.70;;;;;;5084864;28;20111;-48
2022/02/23 03:17:23;;;;;;;24.17;16.60;;;29.00;62.70;;;;;;5084932;28;20353;-46
2022/02/23 03:19:49;;;;;;;23.98;16.30;;;29.00;62.80;;;;;;5084383;28;20063;-39
2022/02/23 03:22:16;;;;;;;31.45;17.15;;;29.00;62.70;;;;;;5084651;28;20020;-39
2022/02/23 03:24:43;;;;;;;27.15;16.85;;;29.00;62.70;;;;;;5084703;28;20031;-38
2022/02/23 03:27:09;;;;;;;25.08;16.77;;;29.00;62.70;;;;;;5083058;28;20031;-39
2022/02/23 03:29:36;;;;;;;20.13;16.65;;;29.00;62.70;;;;;;5084506;28;20367;-45
2022/02/23 03:32:02;;;;;;;21.60;17.05;;;29.00;62.70;;;;;;5084513;28;20027;-44
2022/02/23 03:34:29;;;;;;;20.63;15.70;;;28.90;62.70;;;;;;5084377;28;20037;-42
2022/02/23 03:36:55;;;;;;;20.08;16.17;;;29.00;62.70;;;;;;5084409;28;20016;-40
2022/02/23 03:39:22;;;;;;;21.35;16.10;;;28.90;62.60;;;;;;5084512;28;20239;-40
2022/02/23 03:41:49;;;;;;;20.30;15.35;;;28.90;62.50;;;;;;5083818;28;20037;-40
2022/02/23 03:44:15;;;;;;;21.17;15.93;;;28.90;62.50;;;;;;5093991;28;20020;-40
2022/02/23 03:46:42;;;;;;;17.58;15.30;;;28.90;62.60;;;;;;5085973;28;20035;-40
2022/02/23 03:49:09;;;;;;;16.67;14.93;;;28.90;62.40;;;;;;5083982;28;20095;-43
2022/02/23 03:51:35;;;;;;;18.83;14.93;;;28.90;62.30;;;;;;5083778;28;20024;-39
2022/02/23 03:54:02;;;;;;;19.23;15.02;;;28.90;62.30;;;;;;5084256;28;20052;-40
2022/02/23 03:56:42;;;;;;;16.95;15.13;;;28.90;62.40;;;;;;5084504;28;20094;-42
2022/02/23 03:59:13;;;;;;;19.27;15.10;;;28.90;62.40;;;;;;5084146;28;20054;-47
2022/02/23 04:01:41;;;;;;;16.08;14.38;;;28.80;62.30;;;;;;5082778;28;20035;-45
2022/02/23 04:04:09;;;;;;;16.60;14.90;;;28.80;62.30;;;;;;5084038;28;20070;-40
2022/02/23 04:06:36;;;;;;;17.33;14.30;;;28.80;62.30;;;;;;5084066;28;20036;-40
2022/02/23 04:09:05;;;;;;;16.27;14.57;;;28.80;62.30;;;;;;5083946;28;20028;-47
2022/02/23 04:11:33;;;;;;;18.65;14.77;;;28.80;62.20;;;;;;5084514;28;20207;-42
2022/02/23 04:14:00;;;;;;;16.88;14.38;;;28.80;62.20;;;;;;5083979;28;20033;-39
2022/02/23 04:16:26;;;;;;;16.63;14.10;;;28.80;62.30;;;;;;5084361;28;20038;-42
2022/02/23 04:18:53;;;;;;;18.15;13.73;;;28.80;62.30;;;;;;5083962;28;20035;-40
2022/02/23 04:21:21;;;;;;;17.10;14.30;;;28.80;62.30;;;;;;5083658;28;20325;-38
2022/02/23 04:23:48;;;;;;;20.55;16.63;;;28.80;62.30;;;;;;5083739;28;20083;-42
2022/02/23 04:26:16;;;;;;;24.58;19.38;;;28.70;62.20;;;;;;5084232;28;20032;-42
2022/02/23 04:28:43;;;;;;;25.52;19.88;;;28.70;62.20;;;;;;5083798;28;20115;-38
2022/02/23 04:31:10;;;;;;;22.58;17.35;;;28.70;62.30;;;;;;5083613;28;20029;-37
2022/02/23 04:33:37;;;;;;;18.88;16.13;;;28.70;62.20;;;;;;5084043;28;20059;-37
2022/02/23 04:36:10;;;;;;;20.15;16.15;;;28.70;62.20;;;;;;5084150;28;20040;-37
2022/02/23 04:38:37;;;;;;;21.83;16.40;;;28.70;62.20;;;;;;5083520;28;20021;-38
2022/02/23 04:41:08;;;;;;;16.98;15.23;;;28.70;62.10;;;;;;5084052;28;20033;-39
2022/02/23 04:43:35;;;;;;;22.83;15.68;;;28.60;62.10;;;;;;5083680;28;20013;-38
2022/02/23 04:46:10;;;;;;;19.73;15.07;;;28.70;62.20;;;;;;5083874;28;20200;-40
2022/02/23 04:48:41;;;;;;;19.58;15.55;;;28.60;62.00;;;;;;5083585;28;20051;-40
2022/02/23 04:51:07;;;;;;;16.88;14.55;;;28.60;62.00;;;;;;5084045;28;20331;-39
2022/02/23 04:53:35;;;;;;;17.05;14.90;;;28.60;62.00;;;;;;5083578;28;20036;-39
2022/02/23 04:56:04;;;;;;;16.85;14.68;;;28.60;62.00;;;;;;5083968;28;20024;-40
2022/02/23 04:58:30;;;;;;;17.55;14.63;;;28.60;62.40;;;;;;5083492;28;20100;-40
2022/02/23 05:00:57;;;;;;;16.83;14.40;;;28.60;61.90;;;;;;5083686;28;20078;-42
2022/02/23 05:03:24;;;;;;;16.85;14.73;;;28.60;61.90;;;;;;5085496;28;20016;-49
2022/02/23 05:05:52;;;;;;;17.30;14.75;;;28.60;61.90;;;;;;5087652;28;20179;-51
2022/02/23 05:08:20;;;;;;;16.67;14.82;;;28.60;61.90;;;;;;5087168;28;20056;-40
2022/02/23 05:10:47;;;;;;;20.52;14.65;;;28.60;61.90;;;;;;5087538;28;20029;-42
2022/02/23 05:13:14;;;;;;;17.13;14.50;;;28.50;61.70;;;;;;5087150;28;20040;-43
2022/02/23 05:15:41;;;;;;;19.60;15.18;;;28.50;61.70;;;;;;5087316;28;20047;-42
2022/02/23 05:18:08;;;;;;;16.60;14.90;;;28.50;61.80;;;;;;5087003;28;20020;-42
2022/02/23 05:20:35;;;;;;;16.92;15.05;;;28.50;62.30;;;;;;5086768;28;20056;-52
2022/02/23 05:23:04;;;;;;;18.20;14.75;;;28.50;61.70;;;;;;5086877;28;20028;-51
2022/02/23 05:25:30;;;;;;;17.35;13.95;;;28.50;61.70;;;;;;5087156;28;20350;-49
2022/02/23 05:27:58;;;;;;;17.30;15.25;;;28.50;61.60;;;;;;5086985;28;20407;-55
2022/02/23 05:30:26;;;;;;;17.73;15.13;;;28.50;61.50;;;;;;5087176;28;20032;-49
2022/02/23 05:32:52;;;;;;;17.27;14.65;;;28.50;61.60;;;;;;5086780;28;20224;-50
2022/02/23 05:35:19;;;;;;;20.30;15.45;;;28.50;61.60;;;;;;5086933;28;20094;-49
2022/02/23 05:37:45;;;;;;;17.13;15.13;;;28.40;61.40;;;;;;5086725;28;20024;-51
2022/02/23 05:40:12;;;;;;;20.60;14.20;;;28.40;61.30;;;;;;5086853;28;20055;-48
2022/02/23 05:42:39;;;;;;;19.48;14.60;;;28.40;61.40;;;;;;5086629;28;20149;-51
2022/02/23 05:45:06;;;;;;;15.80;13.90;;;28.40;61.30;;;;;;5086579;28;20261;-48
2022/02/23 05:47:33;;;;;;;18.27;14.77;;;28.40;61.30;;;;;;5086707;28;20219;-51
2022/02/23 05:50:00;;;;;;;16.67;14.73;;;28.40;61.30;;;;;;5086709;28;20025;-49
2022/02/23 05:52:26;;;;;;;18.25;14.80;;;28.40;61.30;;;;;;5086352;28;20032;-52
2022/02/23 05:54:53;;;;;;;19.58;14.75;;;28.40;61.30;;;;;;5086575;28;20020;-41
2022/02/23 05:57:20;;;;;;;20.17;14.55;;;28.40;61.30;;;;;;5086363;28;20035;-41
2022/02/23 05:59:47;;;;;;;17.15;14.77;;;28.40;61.40;;;;;;5085954;28;20033;-44
2022/02/23 06:02:14;;;;;;;15.68;14.05;;;28.40;61.40;;;;;;5086090;28;20133;-40
2022/02/23 06:04:40;;;;;;;16.27;14.38;;;28.40;61.40;;;;;;5086409;28;20251;-41
2022/02/23 06:07:07;;;;;;;22.38;14.50;;;28.40;61.30;;;;;;5086029;28;20028;-43
2022/02/23 06:09:34;;;;;;;16.05;14.43;;;28.30;61.30;;;;;;5086418;28;20321;-41
2022/02/23 06:12:01;;;;;;;16.27;13.80;;;28.30;61.20;;;;;;5092137;28;20062;-39
2022/02/23 06:14:30;;;;;;;16.55;13.73;;;28.30;61.10;;;;;;5105867;28;20036;-41
2022/02/23 06:16:56;;;;;;;16.98;13.85;;;28.30;61.20;;;;;;5106250;28;20028;-41
2022/02/23 06:19:23;;;;;;;15.70;13.98;;;28.30;61.10;;;;;;5106263;28;20034;-47
2022/02/23 06:21:49;;;;;;;16.73;13.82;;;28.30;61.20;;;;;;5105867;28;20074;-45
2022/02/23 06:24:16;;;;;;;15.80;13.95;;;28.30;61.30;;;;;;5106129;28;20040;-42
2022/02/23 06:26:43;;;;;;;16.67;13.80;;;28.30;61.30;;;;;;5096777;28;20024;-45
2022/02/23 06:29:10;;;;;;;14.90;13.50;;;28.20;61.20;;;;;;5085683;28;20029;-40
2022/02/23 06:31:36;;;;;;;14.77;13.38;;;28.30;61.40;;;;;;5085768;28;20020;-40
2022/02/23 06:34:03;;;;;;;18.60;13.30;;;28.20;61.40;;;;;;5085980;28;20126;-43
2022/02/23 06:36:30;;;;;;;16.80;13.73;;;28.20;61.40;;;;;;5086041;28;20035;-43
2022/02/23 06:38:57;;;;;;;16.05;13.60;;;28.20;61.40;;;;;;5085600;28;20028;-42
2022/02/23 06:41:26;;;;;;;15.20;13.10;;;28.20;61.40;;;;;;5085967;28;20099;-51
2022/02/23 06:43:54;;;;;;;18.25;14.38;;;28.20;61.40;;;;;;5085345;28;20028;-48
2022/02/23 06:46:22;;;;;;;19.67;14.60;;;28.20;61.50;;;;;;5085912;28;20028;-48
2022/02/23 06:48:49;;;;;;;15.90;14.05;;;28.20;61.50;;;;;;5085355;28;20017;-49
2022/02/23 06:51:19;;;;;;;15.15;13.65;;;28.10;61.40;;;;;;5092135;28;20039;-39
2022/02/23 06:53:49;;;;;;;16.02;14.02;;;28.10;61.30;;;;;;5105518;28;20269;-39
2022/02/23 06:56:16;;;;;;;18.38;13.45;;;28.10;61.40;;;;;;5090892;28;20029;-39
2022/02/23 06:58:49;;;;;;;15.48;13.52;;;28.10;61.80;;;;;;5085064;28;20083;-37
2022/02/23 07:01:18;;;;;;;14.63;13.13;;;28.10;61.50;;;;;;5086705;28;20385;-37
2022/02/23 07:03:47;;;;;;;15.27;13.50;;;28.10;61.70;;;;;;5105336;28;20032;-37
2022/02/23 07:06:14;;;;;;;15.48;13.52;;;28.10;61.80;;;;;;5105807;28;20262;-41
2022/02/23 07:08:49;;;;;;;14.55;12.93;;;28.10;61.90;;;;;;5105367;28;20085;-45
2022/02/23 07:11:16;;;;;;;15.55;13.40;;;28.10;61.60;;;;;;5105575;28;20273;-39
2022/02/23 07:13:45;;;;;;;17.48;13.02;;;28.10;61.80;;;;;;5105333;28;20022;-38
2022/02/23 07:16:13;;;;;;;14.95;13.45;;;28.10;61.80;;;;;;5105580;28;20043;-38
2022/02/23 07:18:40;;;;;;;16.10;13.15;;;28.00;61.50;;;;;;5104910;28;20224;-41
2022/02/23 07:21:07;;;;;;;17.13;13.23;;;28.10;61.70;;;;;;5104775;28;20235;-41
2022/02/23 07:23:34;;;;;;;14.30;12.90;;;28.00;61.60;;;;;;5105003;28;20216;-42
2022/02/23 07:26:01;;;;;;;14.05;12.65;;;28.00;61.60;;;;;;5104464;28;20058;-41
2022/02/23 07:28:27;;;;;;;15.05;13.10;;;28.00;61.50;;;;;;5105114;28;20230;-40
2022/02/23 07:30:55;;;;;;;14.55;12.65;;;28.00;61.50;;;;;;5105222;28;20046;-40
2022/02/23 07:33:21;;;;;;;17.15;14.13;;;28.00;61.40;;;;;;5104616;28;20028;-41
2022/02/23 07:35:48;;;;;;;17.52;13.18;;;28.00;61.50;;;;;;5105174;28;20032;-40
2022/02/23 07:38:15;;;;;;;18.13;13.20;;;28.00;61.50;;;;;;5104794;28;20324;-40
2022/02/23 07:40:42;;;;;;;15.07;13.48;;;28.00;61.60;;;;;;5104828;28;20085;-44
2022/02/23 07:43:09;;;;;;;15.38;13.48;;;27.90;61.50;;;;;;5104547;28;20064;-43
2022/02/23 07:45:36;;;;;;;17.45;13.55;;;27.90;61.50;;;;;;5104997;28;20023;-42
2022/02/23 07:48:04;;;;;;;15.88;13.13;;;27.90;61.60;;;;;;5104411;28;20052;-43
2022/02/23 07:50:32;;;;;;;14.82;13.07;;;27.90;61.40;;;;;;5104755;28;20058;-48
2022/02/23 07:52:59;;;;;;;14.52;12.82;;;27.90;61.30;;;;;;5104509;28;20020;-56
2022/02/23 07:55:26;;;;;;;16.33;13.25;;;27.90;61.40;;;;;;5104512;28;20039;-48
2022/02/23 07:57:53;;;;;;;18.02;12.57;;;27.90;61.40;;;;;;5104363;28;20027;-55
2022/02/23 08:00:22;;;;;;;15.00;13.52;;;27.90;61.40;;;;;;5104714;28;20027;-49
2022/02/23 08:02:49;;;;;;;14.98;13.00;;;27.90;61.30;;;;;;5104223;28;20073;-50
2022/02/23 08:05:16;;;;;;;17.52;12.55;;;27.90;61.50;;;;;;5104554;28;20044;-50
2022/02/23 08:07:42;;;;;;;14.75;12.50;;;27.90;61.50;;;;;;5104409;28;20043;-53
2022/02/23 08:10:09;;;;;;;16.73;12.52;;;27.90;61.40;;;;;;5104324;28;20032;-50
2022/02/23 08:12:36;;;;;;;17.75;13.15;;;27.80;61.30;;;;;;5104236;28;20020;-49
2022/02/23 08:20:38;;;;;;;14.57;12.73;;;27.80;61.50;;;;;;5104103;28;20235;-49
2022/02/23 08:23:05;;;;;;;16.25;12.63;;;27.80;61.50;;;;;;5104157;28;20046;-49
2022/02/23 08:25:31;;;;;;;14.38;12.70;;;27.80;61.40;;;;;;5104400;28;20022;-48
2022/02/23 08:27:58;;;;;;;14.35;12.35;;;27.80;61.40;;;;;;5104135;28;20220;-52
2022/02/23 08:30:25;;;;;;;13.52;12.13;;;27.80;61.50;;;;;;5104231;28;20337;-49
2022/02/23 08:32:51;;;;;;;16.05;13.15;;;27.80;61.40;;;;;;5104076;28;20069;-49
2022/02/23 08:35:18;;;;;;;14.25;12.27;;;27.80;61.50;;;;;;5104236;28;20208;-49
2022/02/23 08:37:44;;;;;;;14.88;12.73;;;27.80;61.50;;;;;;5106641;28;20228;-48
2022/02/23 08:40:11;;;;;;;14.80;13.40;;;27.80;61.50;;;;;;5108257;28;20039;-48
2022/02/23 08:42:37;;;;;;;14.63;13.02;;;27.70;61.40;;;;;;5108228;28;20315;-49
2022/02/23 08:45:05;;;;;;;14.40;12.88;;;27.70;61.40;;;;;;5108086;28;20367;-39
2022/02/23 08:47:31;;;;;;;15.20;12.95;;;27.70;61.50;;;;;;5108024;28;20019;-39
2022/02/23 08:49:58;;;;;;;15.02;13.35;;;27.70;61.50;;;;;;5108186;28;20188;-44
2022/02/23 08:52:25;;;;;;;16.02;12.55;;;27.70;61.50;;;;;;5107812;28;20094;-41
2022/02/23 08:54:51;;;;;;;15.45;13.23;;;27.70;61.50;;;;;;5108171;28;20296;-42
2022/02/23 08:57:18;;;;;;;14.30;12.85;;;27.70;61.40;;;;;;5107863;28;20081;-41
2022/02/23 08:59:44;;;;;;;16.63;13.15;;;27.70;61.50;;;;;;5107771;28;20044;-38
2022/02/23 09:02:11;;;;;;;14.98;13.48;;;27.70;61.60;;;;;;5107496;28;20246;-38
2022/02/23 09:04:38;;;;;;;16.50;13.63;;;27.70;61.80;;;;;;5107776;28;20020;-43
2022/02/23 09:07:05;;;;;;;15.55;13.90;;;27.70;61.90;;;;;;5107544;28;20275;-41
2022/02/23 09:09:31;;;;;;;14.52;13.13;;;27.70;62.20;;;;;;5107749;28;20073;-43
2022/02/23 09:11:58;;;;;;;15.52;13.55;;;27.70;62.10;;;;;;5107549;28;20081;-49
2022/02/23 09:14:25;;;;;;;19.17;13.30;;;27.70;62.10;;;;;;5107379;28;20028;-48
2022/02/23 09:16:51;;;;;;;14.80;13.13;;;27.70;62.10;;;;;;5107651;28;20020;-53
2022/02/23 09:19:18;;;;;;;16.35;13.40;;;27.70;62.10;;;;;;5107419;28;20016;-41
2022/02/23 09:21:44;;;;;;;16.63;13.57;;;27.60;62.00;;;;;;5107062;28;20043;-39
2022/02/23 09:24:11;;;;;;;15.60;14.05;;;27.60;62.20;;;;;;5107305;28;20082;-38
2022/02/23 09:26:38;;;;;;;15.27;13.10;;;27.60;62.20;;;;;;5107373;28;20023;-38
2022/02/23 09:29:04;;;;;;;15.40;13.60;;;27.60;62.40;;;;;;5107119;28;20228;-40
2022/02/23 09:31:31;;;;;;;15.75;13.52;;;27.60;62.70;;;;;;5107114;28;20104;-37
2022/02/23 09:33:58;;;;;;;14.85;13.20;;;27.60;62.80;;;;;;5107227;28;20028;-39
2022/02/23 09:36:25;;;;;;;14.75;13.25;;;27.60;62.90;;;;;;5107426;28;20032;-45
2022/02/23 09:38:51;;;;;;;16.00;13.60;;;27.50;62.80;;;;;;5107308;28;20023;-39
2022/02/23 09:41:21;;;;;;;15.90;14.18;;;27.60;63.10;;;;;;5107390;28;20036;-42
2022/02/23 09:43:50;;;;;;;15.45;13.82;;;27.50;63.00;;;;;;5107007;28;20074;-47
2022/02/23 09:46:21;;;;;;;18.73;13.93;;;27.50;63.30;;;;;;5107371;28;20031;-42
2022/02/23 09:48:52;;;;;;;16.23;13.63;;;27.50;63.30;;;;;;5106143;28;20300;-39
2022/02/23 09:51:19;;;;;;;15.68;13.98;;;27.50;63.50;;;;;;5107116;28;20042;-39
2022/02/23 09:53:46;;;;;;;19.15;14.27;;;27.50;63.60;;;;;;5106668;28;20047;-43
2022/02/23 09:56:15;;;;;;;17.42;13.68;;;27.50;63.50;;;;;;5107190;28;20027;-46
2022/02/23 09:58:42;;;;;;;17.45;14.35;;;27.40;63.40;;;;;;5106693;28;20192;-43
2022/02/23 10:01:09;;;;;;;17.67;14.07;;;27.40;63.70;;;;;;5106920;28;20405;-39
2022/02/23 10:03:38;;;;;;;17.48;13.73;;;27.40;63.70;;;;;;5106624;28;20027;-39
2022/02/23 10:06:05;;;;;;;19.42;14.25;;;27.40;63.60;;;;;;5106836;28;20236;-41
2022/02/23 10:08:34;;;;;;;18.00;14.40;;;27.40;63.70;;;;;;5106454;28;20042;-43
2022/02/23 10:11:02;;;;;;;17.98;13.88;;;27.40;63.80;;;;;;5106811;28;20031;-49
2022/02/23 10:13:29;;;;;;;16.02;14.43;;;27.40;64.00;;;;;;5105085;28;20040;-48
2022/02/23 10:15:58;;;;;;;17.02;14.38;;;27.30;64.10;;;;;;5106760;28;20199;-49
2022/02/23 10:18:28;;;;;;;19.17;14.20;;;27.30;64.20;;;;;;5106352;28;20020;-48
2022/02/23 10:20:54;;;;;;;28.10;14.45;;;27.30;64.20;;;;;;5105951;28;20048;-48
2022/02/23 10:23:23;;;;;;;18.63;14.10;;;27.30;64.20;;;;;;5106192;28;20036;-47
2022/02/23 10:26:02;;;;;;;22.48;13.93;;;27.30;64.40;;;;;;5106440;28;20024;-51
2022/02/23 10:28:32;;;;;;;16.13;14.20;;;27.30;64.20;;;;;;5106075;28;20020;-40
2022/02/23 10:31:01;;;;;;;18.20;14.40;;;27.20;64.50;;;;;;5106320;28;20028;-41
2022/02/23 10:33:37;;;;;;;17.67;14.73;;;27.20;64.70;;;;;;5105851;28;20035;-41
2022/02/23 10:36:18;;;;;;;22.83;14.65;;;27.20;64.90;;;;;;5106285;28;20028;-42
2022/02/23 10:39:07;;;;;;;19.20;14.60;;;27.20;65.00;;;;;;5105667;28;20039;-41
2022/02/23 10:41:37;;;;;;;19.48;14.45;;;27.20;65.10;;;;;;5105934;28;20377;-47
2022/02/23 10:44:09;;;;;;;20.88;15.35;;;27.20;65.10;;;;;;5105635;28;20032;-38
2022/02/23 10:46:38;;;;;;;20.25;14.57;;;27.20;65.30;;;;;;5105522;28;20028;-38
2022/02/23 10:49:08;;;;;;;19.00;14.88;;;27.10;65.30;;;;;;5105421;28;20098;-38
2022/02/23 10:51:38;;;;;;;16.55;14.60;;;27.10;65.40;;;;;;5105583;28;20099;-44
2022/02/23 10:54:13;;;;;;;22.20;14.07;;;27.10;65.50;;;;;;5105496;28;20034;-39
2022/02/23 10:56:44;;;;;;;17.83;14.02;;;27.10;65.50;;;;;;5105413;28;20320;-40
2022/02/23 10:59:19;;;;;;;54.13;15.63;;;27.10;65.40;;;;;;5105213;28;20031;-39
2022/02/23 11:01:51;;;;;;;24.52;14.60;;;27.10;65.30;;;;;;5104180;28;20024;-38
2022/02/23 11:04:22;;;;;;;22.23;13.93;;;27.10;65.40;;;;;;5105376;28;20087;-43
2022/02/23 11:06:52;;;;;;;27.38;14.27;;;27.10;65.70;;;;;;5104234;28;20216;-43
2022/02/23 11:09:18;;;;;;;25.58;14.57;;;27.10;65.60;;;;;;5105079;28;20032;-45
2022/02/23 11:11:50;;;;;;;25.55;15.00;;;27.10;65.80;;;;;;5105168;28;20137;-42
2022/02/23 11:14:19;;;;;;;20.45;14.13;;;27.00;65.80;;;;;;5105057;28;20220;-48
2022/02/23 11:16:48;;;;;;;28.33;15.35;;;27.00;65.70;;;;;;5105273;28;20103;-43
2022/02/23 11:19:17;;;;;;;25.73;14.52;;;27.00;65.80;;;;;;5103944;28;20016;-44
2022/02/23 11:21:45;;;;;;;19.15;15.40;;;27.00;66.00;;;;;;5104698;28;20104;-49
2022/02/23 11:24:12;;;;;;;20.85;14.77;;;27.00;65.90;;;;;;5088362;28;20025;-49
2022/02/23 11:26:41;;;;;;;23.95;14.98;;;27.00;65.90;;;;;;5084594;28;20024;-39
2022/02/23 11:29:20;;;;;;;22.65;15.27;;;27.00;65.90;;;;;;5090027;28;20017;-40
2022/02/23 11:31:52;;;;;;;18.85;14.65;;;27.10;66.20;;;;;;5089667;28;20032;-45
2022/02/23 11:34:21;;;;;;;22.27;15.48;;;27.00;65.90;;;;;;5086034;28;20031;-45
2022/02/23 11:36:52;;;;;;;20.50;14.70;;;27.10;66.10;;;;;;5104740;28;20099;-40
2022/02/23 11:39:20;;;;;;;23.13;15.45;;;27.00;65.90;;;;;;5104637;28;20273;-42
2022/02/23 11:41:55;;;;;;;21.10;15.13;;;27.00;65.90;;;;;;5104746;28;20363;-42
2022/02/23 11:44:27;;;;;;;22.73;14.73;;;27.00;65.90;;;;;;5104714;28;20027;-41
2022/02/23 11:46:59;;;;;;;20.60;14.63;;;27.10;65.90;;;;;;5100008;28;20091;-39
2022/02/23 11:49:32;;;;;;;23.27;15.15;;;27.00;66.00;;;;;;5085980;28;20208;-49
2022/02/23 11:52:14;;;;;;;20.60;14.93;;;27.00;66.00;;;;;;5092435;28;20032;-40
2022/02/23 11:54:59;;;;;;;26.58;14.60;;;27.00;66.10;;;;;;5104587;28;20080;-42
2022/02/23 11:57:51;;;;;;;22.13;15.45;;;27.00;66.50;;;;;;5104416;28;20091;-46
2022/02/23 12:00:21;;;;;;;26.63;15.18;;;27.00;66.60;;;;;;5104191;28;20236;-39
2022/02/23 12:03:04;;;;;;;22.58;15.68;;;27.00;66.60;;;;;;5104249;28;20027;-40
2022/02/23 12:05:43;;;;;;;22.25;15.38;;;27.00;66.70;;;;;;5104594;28;20085;-44
2022/02/23 12:08:31;;;;;;;24.77;15.82;;;27.00;67.10;;;;;;5104101;28;20065;-41
2022/02/23 12:11:13;;;;;;;27.40;15.48;;;27.00;67.00;;;;;;5104507;28;20024;-46
2022/02/23 12:13:45;;;;;;;29.45;15.85;;;27.00;67.50;;;;;;5097563;28;20024;-44
2022/02/23 12:16:22;;;;;;;22.20;14.77;;;27.00;67.40;;;;;;5086817;28;20081;-41
2022/02/23 12:18:51;;;;;;;24.10;15.75;;;27.00;67.60;;;;;;5083793;28;20033;-49
2022/02/23 12:21:19;;;;;;;31.58;16.17;;;27.10;67.90;;;;;;5098745;28;20048;-40
2022/02/23 12:23:48;;;;;;;38.10;17.50;;;27.00;68.00;;;;;;5099159;28;20332;-49
2022/02/23 12:26:22;;;;;;;32.70;16.38;;;27.10;68.40;;;;;;5084187;28;20296;-48
2022/02/23 12:28:51;;;;;;;28.45;16.55;;;27.10;68.50;;;;;;5083837;28;20028;-50
2022/02/23 12:31:28;;;;;;;29.17;15.23;;;27.00;68.40;;;;;;5084400;28;20201;-47
2022/02/23 12:34:07;;;;;;;27.10;15.38;;;27.00;68.30;;;;;;5101539;28;20103;-39
2022/02/23 12:36:40;;;;;;;24.15;15.52;;;27.00;68.20;;;;;;5104425;28;20024;-45